Time;durP1;ratioP1;P1;durP2;ratioP2;P2;SDS_P1;SDS_P2;PMS_P1;PMS_P2;Temp;Humidity;BMP_temperature;BMP_pressure;BME280_temperature;BME280_humidity;BME280_pressure;Samples;Min_cycle;Max_cycle;Signal;HPM_P1;HPM_P2
2022/02/28 00:00:46;;;;;;;15.80;8.00;;;1.80;99.90;;;;;;5051312;28;20373;-57
2022/02/28 00:03:11;;;;;;;16.33;8.38;;;1.70;99.90;;;;;;5048362;28;20758;-55
2022/02/28 00:05:37;;;;;;;16.40;8.10;;;1.70;99.90;;;;;;5069948;28;20382;-55
2022/02/28 00:08:03;;;;;;;15.20;8.70;;;1.60;99.90;;;;;;5065276;28;20841;-57
2022/02/28 00:10:29;;;;;;;18.40;8.60;;;1.70;99.90;;;;;;5051159;28;20381;-55
2022/02/28 00:12:54;;;;;;;14.23;8.20;;;1.70;99.90;;;;;;5060157;28;20398;-55
2022/02/28 00:15:20;;;;;;;17.88;8.70;;;1.70;99.90;;;;;;5050222;28;20451;-55
2022/02/28 00:17:47;;;;;;;17.02;7.82;;;1.60;99.90;;;;;;5051029;28;20421;-54
2022/02/28 00:20:14;;;;;;;17.25;8.35;;;1.60;99.90;;;;;;5051033;28;21290;-55
2022/02/28 00:22:41;;;;;;;17.17;8.52;;;1.70;99.90;;;;;;5069549;28;20399;-54
2022/02/28 00:25:09;;;;;;;15.50;7.72;;;1.60;99.90;;;;;;5057980;28;20471;-56
2022/02/28 00:27:35;;;;;;;17.85;8.50;;;1.60;99.90;;;;;;5049866;28;20894;-55
2022/02/28 00:30:00;;;;;;;16.23;8.38;;;1.60;99.90;;;;;;5050125;28;20438;-55
2022/02/28 00:32:27;;;;;;;16.42;8.43;;;1.50;99.90;;;;;;5048887;28;20428;-55
2022/02/28 00:34:52;;;;;;;15.57;7.63;;;1.40;99.90;;;;;;5050777;28;20420;-54
2022/02/28 00:37:19;;;;;;;15.93;8.05;;;1.30;99.90;;;;;;5049866;28;20901;-55
2022/02/28 00:39:46;;;;;;;16.60;8.77;;;1.10;99.90;;;;;;5050835;28;20423;-55
2022/02/28 00:42:12;;;;;;;18.23;9.00;;;0.90;99.90;;;;;;5051207;28;20769;-55
2022/02/28 00:44:38;;;;;;;17.25;9.02;;;0.70;99.90;;;;;;5050596;28;20381;-54
2022/02/28 00:47:05;;;;;;;21.08;9.75;;;0.60;99.90;;;;;;5069205;28;20380;-57
2022/02/28 00:49:31;;;;;;;19.20;9.60;;;0.40;99.90;;;;;;5069535;28;20384;-54
2022/02/28 00:51:57;;;;;;;21.50;9.90;;;0.20;99.90;;;;;;5069517;28;20384;-54
2022/02/28 00:54:23;;;;;;;20.17;10.00;;;0.00;99.90;;;;;;5068573;28;20448;-54
2022/02/28 00:56:48;;;;;;;18.80;9.70;;;-0.10;99.90;;;;;;5057161;28;20882;-54
2022/02/28 00:59:14;;;;;;;21.40;10.20;;;-0.20;99.90;;;;;;5049495;28;20424;-55
2022/02/28 01:01:40;;;;;;;22.07;10.10;;;-0.30;99.90;;;;;;5050882;28;20402;-54
2022/02/28 01:04:07;;;;;;;19.58;9.40;;;-0.30;99.90;;;;;;5049655;28;21453;-57
2022/02/28 01:06:33;;;;;;;17.95;9.40;;;-0.20;99.90;;;;;;5061187;28;20391;-54
2022/02/28 01:08:59;;;;;;;19.48;9.93;;;-0.30;99.90;;;;;;5069538;28;20375;-54
2022/02/28 01:11:25;;;;;;;20.73;10.17;;;-0.30;99.90;;;;;;5065421;28;20443;-54
2022/02/28 01:13:51;;;;;;;17.80;9.50;;;-0.40;99.90;;;;;;5049953;28;20381;-56
2022/02/28 01:16:16;;;;;;;21.50;10.20;;;-0.50;99.90;;;;;;5048742;28;20905;-54
2022/02/28 01:18:42;;;;;;;20.60;9.88;;;-0.40;99.90;;;;;;5049767;28;20401;-54
2022/02/28 01:21:08;;;;;;;18.52;10.00;;;-0.40;99.90;;;;;;5048849;28;20397;-55
2022/02/28 01:23:34;;;;;;;18.42;10.27;;;-0.30;99.90;;;;;;5050076;28;20385;-54
2022/02/28 01:25:59;;;;;;;19.65;9.95;;;-0.30;99.90;;;;;;5049815;28;20470;-54
2022/02/28 01:28:25;;;;;;;21.57;10.50;;;-0.40;99.90;;;;;;5049077;28;20609;-54
2022/02/28 01:30:51;;;;;;;19.20;9.87;;;-0.40;99.90;;;;;;5049933;28;20373;-54
2022/02/28 01:33:17;;;;;;;19.15;9.60;;;-0.50;99.90;;;;;;5048752;28;20469;-54
2022/02/28 01:35:43;;;;;;;19.10;9.73;;;-0.40;99.90;;;;;;5049355;28;20409;-55
2022/02/28 01:38:09;;;;;;;18.83;9.80;;;-0.50;99.90;;;;;;5049213;28;20831;-55
2022/02/28 01:40:34;;;;;;;21.40;10.63;;;0.00;99.90;;;;;;5051937;28;20417;-54
2022/02/28 01:43:00;;;;;;;16.05;8.90;;;-0.50;99.90;;;;;;5059884;28;20396;-54
2022/02/28 01:45:26;;;;;;;17.63;8.75;;;-0.50;99.90;;;;;;5048988;28;20431;-54
2022/02/28 01:47:57;;;;;;;15.05;8.70;;;-0.50;99.90;;;;;;5049574;28;20454;-55
2022/02/28 01:50:24;;;;;;;17.40;9.50;;;-0.30;99.90;;;;;;5048733;28;20405;-54
2022/02/28 01:52:50;;;;;;;16.42;8.50;;;-0.50;99.90;;;;;;5049403;28;20796;-54
2022/02/28 01:55:18;;;;;;;17.08;8.40;;;-0.50;99.90;;;;;;5048863;28;20443;-54
2022/02/28 01:57:44;;;;;;;15.98;8.50;;;-0.50;99.90;;;;;;5050979;28;20431;-55
2022/02/28 02:00:13;;;;;;;18.97;8.90;;;-0.50;99.90;;;;;;5032057;28;20396;-54
2022/02/28 02:02:39;;;;;;;17.10;9.15;;;-0.50;99.90;;;;;;5055728;28;20382;-54
2022/02/28 02:05:06;;;;;;;17.17;9.20;;;-0.50;99.90;;;;;;5049104;28;20470;-57
2022/02/28 02:07:32;;;;;;;20.05;9.52;;;-0.50;99.90;;;;;;5031324;28;20472;-54
2022/02/28 02:09:58;;;;;;;16.63;8.67;;;-0.60;99.90;;;;;;5062933;28;20936;-54
2022/02/28 02:12:28;;;;;;;16.70;8.77;;;-0.60;99.90;;;;;;5067631;28;20376;-54
2022/02/28 02:14:54;;;;;;;20.00;10.07;;;-0.70;99.90;;;;;;5068582;28;20402;-54
2022/02/28 02:17:20;;;;;;;19.02;9.20;;;-0.70;99.90;;;;;;5067198;28;20404;-54
2022/02/28 02:19:46;;;;;;;18.17;8.45;;;-0.70;99.90;;;;;;5055761;28;20377;-54
2022/02/28 02:22:14;;;;;;;16.50;8.40;;;0.50;99.90;;;;;;5048021;28;20405;-54
2022/02/28 02:24:40;;;;;;;18.38;9.35;;;-0.70;99.90;;;;;;5068523;28;20470;-54
2022/02/28 02:27:06;;;;;;;17.00;9.35;;;0.70;99.90;;;;;;5067713;28;20387;-56
2022/02/28 02:29:39;;;;;;;17.80;8.63;;;0.30;99.90;;;;;;5071864;28;20379;-54
2022/02/28 02:32:13;;;;;;;18.75;8.30;;;-0.90;99.90;;;;;;5071703;28;20389;-57
2022/02/28 02:34:39;;;;;;;17.73;8.95;;;-0.90;99.90;;;;;;5069851;28;20414;-54
2022/02/28 02:37:04;;;;;;;15.93;8.07;;;-0.90;99.90;;;;;;5070850;28;20411;-57
2022/02/28 02:39:30;;;;;;;17.38;8.45;;;-0.80;99.90;;;;;;5071542;28;20829;-54
2022/02/28 02:41:56;;;;;;;15.75;7.90;;;-0.20;99.90;;;;;;5069568;28;20381;-54
2022/02/28 02:44:22;;;;;;;18.13;8.35;;;-0.70;99.90;;;;;;5051960;28;20374;-55
2022/02/28 02:46:50;;;;;;;17.37;8.50;;;-0.70;99.90;;;;;;5052932;28;20404;-54
2022/02/28 02:49:16;;;;;;;17.20;8.38;;;-0.70;99.90;;;;;;5051904;28;20405;-54
2022/02/28 02:51:42;;;;;;;17.98;8.90;;;-0.80;99.90;;;;;;5052433;28;20475;-55
2022/02/28 02:54:08;;;;;;;20.65;9.50;;;-0.80;99.90;;;;;;5064804;28;20395;-57
2022/02/28 02:56:35;;;;;;;16.48;7.95;;;-0.80;99.90;;;;;;5071519;28;20403;-54
2022/02/28 02:59:00;;;;;;;17.15;8.13;;;-0.80;99.90;;;;;;5071552;28;20380;-55
2022/02/28 03:01:26;;;;;;;16.03;8.13;;;-0.70;99.90;;;;;;5069323;28;20388;-54
2022/02/28 03:03:56;;;;;;;17.67;8.35;;;-0.60;99.90;;;;;;5053146;28;20381;-54
2022/02/28 03:06:22;;;;;;;15.63;8.25;;;-0.60;99.90;;;;;;5051410;28;20393;-54
2022/02/28 03:08:47;;;;;;;17.98;8.80;;;-0.60;99.90;;;;;;5057467;28;20387;-54
2022/02/28 03:11:13;;;;;;;15.05;8.05;;;-0.70;99.90;;;;;;5065838;28;20867;-54
2022/02/28 03:13:39;;;;;;;14.55;7.97;;;-0.70;99.90;;;;;;5051847;28;20862;-54
2022/02/28 03:16:04;;;;;;;15.03;8.17;;;-0.90;99.90;;;;;;5055190;28;20767;-54
2022/02/28 03:18:30;;;;;;;15.57;8.50;;;-0.90;99.90;;;;;;5069012;28;20449;-54
2022/02/28 03:20:55;;;;;;;18.40;8.48;;;-0.90;99.90;;;;;;5070921;28;20384;-54
2022/02/28 03:23:21;;;;;;;18.50;8.33;;;-1.00;99.90;;;;;;5070138;28;20395;-54
2022/02/28 03:25:47;;;;;;;16.25;8.82;;;-1.00;99.90;;;;;;5070996;28;20710;-54
2022/02/28 03:28:13;;;;;;;17.37;8.50;;;-0.90;99.90;;;;;;5070071;28;20514;-54
2022/02/28 03:30:39;;;;;;;17.10;8.70;;;-0.90;99.90;;;;;;5070937;28;20414;-54
2022/02/28 03:33:05;;;;;;;16.50;8.63;;;-0.90;99.90;;;;;;5070904;28;20791;-54
2022/02/28 03:35:30;;;;;;;18.83;8.90;;;-1.00;99.90;;;;;;5070138;28;20390;-54
2022/02/28 03:37:58;;;;;;;15.80;8.80;;;-1.10;99.90;;;;;;5070602;28;20397;-54
2022/02/28 03:40:24;;;;;;;18.80;9.23;;;-1.10;99.90;;;;;;5069277;28;20403;-54
2022/02/28 03:42:49;;;;;;;18.17;8.97;;;-0.30;99.90;;;;;;5058863;28;20381;-54
2022/02/28 03:45:17;;;;;;;21.87;9.63;;;-1.00;99.90;;;;;;5050400;28;20470;-54
2022/02/28 03:47:43;;;;;;;18.98;9.40;;;-1.10;99.90;;;;;;5053764;28;20397;-54
2022/02/28 03:50:09;;;;;;;19.98;9.43;;;0.00;99.90;;;;;;5049491;28;20455;-57
2022/02/28 03:52:34;;;;;;;19.17;9.32;;;-1.20;99.90;;;;;;5051162;28;20388;-54
2022/02/28 03:55:01;;;;;;;20.13;9.43;;;-1.20;99.90;;;;;;5052376;28;20724;-54
2022/02/28 03:57:27;;;;;;;19.70;8.82;;;-1.20;99.90;;;;;;5050074;28;20966;-54
2022/02/28 03:59:52;;;;;;;18.80;8.50;;;-1.10;99.90;;;;;;5051686;28;20488;-54
2022/02/28 04:02:18;;;;;;;18.87;10.07;;;0.40;99.90;;;;;;5052667;28;20383;-54
2022/02/28 04:04:44;;;;;;;15.47;8.83;;;-1.00;99.90;;;;;;5051444;28;20462;-54
2022/02/28 04:07:10;;;;;;;16.10;8.70;;;-1.00;99.90;;;;;;5050353;28;20413;-56
2022/02/28 04:09:36;;;;;;;19.67;9.10;;;-1.00;99.90;;;;;;5069963;28;20387;-54
2022/02/28 04:12:03;;;;;;;20.13;9.00;;;-1.00;99.90;;;;;;5063850;28;20381;-54
2022/02/28 04:14:28;;;;;;;18.50;9.48;;;-0.90;99.90;;;;;;5050077;28;20377;-54
2022/02/28 04:16:54;;;;;;;17.23;8.67;;;-1.00;99.90;;;;;;5050272;28;20417;-54
2022/02/28 04:19:20;;;;;;;14.73;8.23;;;-1.00;99.90;;;;;;5049999;28;20460;-54
2022/02/28 04:21:46;;;;;;;17.63;8.60;;;-0.60;99.90;;;;;;5050322;28;20408;-54
2022/02/28 04:24:11;;;;;;;19.45;9.43;;;-1.10;99.90;;;;;;5049783;28;20471;-54
2022/02/28 04:26:40;;;;;;;16.67;8.50;;;-1.30;99.90;;;;;;5050729;28;20420;-54
2022/02/28 04:29:06;;;;;;;17.50;9.20;;;-1.30;99.90;;;;;;5050410;28;20389;-54
2022/02/28 04:31:32;;;;;;;16.80;8.38;;;-0.10;99.90;;;;;;5054820;28;20397;-54
2022/02/28 04:33:57;;;;;;;18.25;8.90;;;-1.40;99.90;;;;;;5056679;28;20801;-54
2022/02/28 04:36:23;;;;;;;17.02;8.82;;;-1.50;99.90;;;;;;5049555;28;20816;-56
2022/02/28 04:38:49;;;;;;;19.30;9.40;;;-1.60;99.90;;;;;;5058681;28;20395;-54
2022/02/28 04:41:14;;;;;;;21.23;9.80;;;-1.50;99.90;;;;;;5047951;28;20407;-54
2022/02/28 04:43:40;;;;;;;21.80;9.80;;;-1.40;99.90;;;;;;5050246;28;20383;-55
2022/02/28 04:46:05;;;;;;;20.20;10.17;;;-1.20;99.90;;;;;;5049308;28;20429;-54
2022/02/28 04:48:31;;;;;;;19.67;9.20;;;-1.10;99.90;;;;;;5049434;28;20393;-55
2022/02/28 04:50:57;;;;;;;19.73;9.30;;;-1.20;99.90;;;;;;5052403;28;20426;-54
2022/02/28 04:53:23;;;;;;;20.27;9.90;;;-1.30;99.90;;;;;;5057727;28;20388;-56
2022/02/28 04:55:50;;;;;;;23.02;9.65;;;-1.40;99.90;;;;;;5057907;28;20413;-56
2022/02/28 04:58:17;;;;;;;19.38;9.15;;;-1.60;99.90;;;;;;5070294;28;20384;-57
2022/02/28 05:00:42;;;;;;;21.40;9.70;;;-0.50;99.90;;;;;;5053965;28;20513;-57
2022/02/28 05:03:08;;;;;;;17.55;9.27;;;-1.60;99.90;;;;;;5053795;28;20860;-59
2022/02/28 05:05:34;;;;;;;19.20;9.70;;;-1.70;99.90;;;;;;5050359;28;20859;-57
2022/02/28 05:08:00;;;;;;;21.08;10.52;;;-1.80;99.90;;;;;;5054366;28;20936;-57
2022/02/28 05:10:26;;;;;;;21.47;10.27;;;-1.90;99.90;;;;;;5053341;28;20477;-57
2022/02/28 05:12:54;;;;;;;22.13;10.13;;;-1.90;99.90;;;;;;5042036;28;20450;-57
2022/02/28 05:15:20;;;;;;;21.52;10.98;;;-1.80;99.90;;;;;;5048764;28;20472;-57
2022/02/28 05:17:45;;;;;;;21.42;10.38;;;-1.70;99.90;;;;;;5058046;28;20417;-56
2022/02/28 05:20:11;;;;;;;21.13;10.10;;;-1.50;99.90;;;;;;5057248;28;20779;-59
2022/02/28 05:22:37;;;;;;;21.40;10.15;;;-0.60;99.90;;;;;;5050390;28;20413;-56
2022/02/28 05:25:03;;;;;;;20.45;10.18;;;0.10;99.90;;;;;;5058693;28;20393;-56
2022/02/28 05:27:39;;;;;;;19.73;9.52;;;-1.40;99.90;;;;;;5061502;28;20433;-55
2022/02/28 05:30:07;;;;;;;21.58;10.50;;;-1.50;99.90;;;;;;5069154;28;20873;-56
2022/02/28 05:32:33;;;;;;;18.85;9.32;;;-1.60;99.90;;;;;;5054288;28;21244;-55
2022/02/28 05:34:59;;;;;;;22.27;10.50;;;-1.60;99.90;;;;;;5061604;28;20387;-55
2022/02/28 05:37:24;;;;;;;21.27;10.95;;;-1.70;99.90;;;;;;5052423;28;20418;-56
2022/02/28 05:39:50;;;;;;;20.90;10.57;;;-1.50;99.90;;;;;;5051488;28;20922;-56
2022/02/28 05:42:16;;;;;;;19.92;10.48;;;-1.40;99.90;;;;;;5068133;28;20395;-56
2022/02/28 05:44:42;;;;;;;21.42;10.57;;;-1.20;99.90;;;;;;5062876;28;20525;-55
2022/02/28 05:47:07;;;;;;;20.40;10.30;;;-1.10;99.90;;;;;;5061669;28;21182;-54
2022/02/28 05:49:33;;;;;;;21.30;9.80;;;-1.10;99.90;;;;;;5066081;28;20403;-56
2022/02/28 05:51:59;;;;;;;22.30;10.77;;;0.00;99.90;;;;;;5072992;28;20885;-54
2022/02/28 05:54:24;;;;;;;18.58;10.00;;;-1.20;99.90;;;;;;5048386;28;20905;-55
2022/02/28 05:56:50;;;;;;;21.50;10.73;;;-1.30;99.90;;;;;;5065842;28;20417;-54
2022/02/28 05:59:15;;;;;;;19.08;9.73;;;-1.30;99.90;;;;;;5064905;28;20391;-55
2022/02/28 06:01:41;;;;;;;21.08;9.95;;;-1.20;99.90;;;;;;5069199;28;20376;-55
2022/02/28 06:04:07;;;;;;;19.17;9.10;;;-1.40;99.90;;;;;;5072307;28;20719;-55
2022/02/28 06:06:33;;;;;;;21.03;10.83;;;-1.30;99.90;;;;;;5072465;28;20433;-55
2022/02/28 06:08:58;;;;;;;21.45;10.23;;;-1.40;99.90;;;;;;5072814;28;20383;-55
2022/02/28 06:11:26;;;;;;;19.70;9.77;;;-1.40;99.90;;;;;;5071161;28;20876;-55
2022/02/28 06:13:51;;;;;;;19.63;10.52;;;-1.30;99.90;;;;;;5058127;28;20392;-54
2022/02/28 06:16:17;;;;;;;20.27;10.00;;;-1.30;99.90;;;;;;5083083;28;20424;-55
2022/02/28 06:18:43;;;;;;;19.73;9.70;;;-1.40;99.90;;;;;;5070194;28;20461;-56
2022/02/28 06:21:08;;;;;;;19.77;10.52;;;-1.40;99.90;;;;;;5065306;28;20432;-56
2022/02/28 06:23:34;;;;;;;22.03;10.70;;;-1.30;99.90;;;;;;5083555;28;20416;-56
2022/02/28 06:26:00;;;;;;;22.70;10.07;;;-1.30;99.90;;;;;;5063455;28;20403;-56
2022/02/28 06:28:28;;;;;;;24.02;10.88;;;-1.40;99.90;;;;;;5058288;28;20403;-56
2022/02/28 06:30:53;;;;;;;24.30;11.35;;;-1.40;99.90;;;;;;5061267;28;20386;-56
2022/02/28 06:33:19;;;;;;;19.98;10.60;;;-1.20;99.90;;;;;;5033843;28;20376;-54
2022/02/28 06:35:48;;;;;;;22.10;10.73;;;-0.90;99.90;;;;;;5052321;28;20385;-54
2022/02/28 06:38:15;;;;;;;22.92;10.60;;;-0.60;99.90;;;;;;5034009;28;20943;-56
2022/02/28 06:40:41;;;;;;;19.67;10.50;;;-0.20;99.90;;;;;;5052171;28;20377;-55
2022/02/28 06:43:06;;;;;;;23.33;11.20;;;0.90;99.90;;;;;;5034856;28;20763;-54
2022/02/28 06:45:32;;;;;;;25.77;10.77;;;0.40;99.90;;;;;;5053318;28;20380;-55
2022/02/28 06:47:58;;;;;;;21.45;11.50;;;0.40;99.90;;;;;;5070748;28;20399;-54
2022/02/28 06:50:24;;;;;;;26.05;10.32;;;0.50;99.90;;;;;;5052209;28;20787;-55
2022/02/28 06:52:50;;;;;;;20.00;10.05;;;0.70;99.90;;;;;;5054265;28;20387;-56
2022/02/28 06:55:15;;;;;;;17.77;9.40;;;1.50;99.90;;;;;;5071334;28;20872;-57
2022/02/28 06:57:41;;;;;;;20.80;9.70;;;2.60;99.90;;;;;;5072130;28;20453;-57
2022/02/28 07:00:07;;;;;;;18.20;10.38;;;3.70;99.90;;;;;;5072055;28;20877;-54
2022/02/28 07:02:33;;;;;;;23.60;10.43;;;4.90;99.90;;;;;;5071508;28;20495;-54
2022/02/28 07:04:58;;;;;;;25.53;10.80;;;6.80;99.90;;;;;;5064426;28;20505;-58
2022/02/28 07:07:24;;;;;;;22.83;11.40;;;7.30;98.70;;;;;;5071809;28;20423;-57
2022/02/28 07:09:50;;;;;;;18.47;12.53;;;8.30;95.40;;;;;;5071642;28;20748;-57
2022/02/28 07:12:16;;;;;;;19.80;10.95;;;8.60;93.40;;;;;;5070730;28;20389;-55
2022/02/28 07:14:42;;;;;;;20.00;16.08;;;9.70;91.20;;;;;;5070279;28;20501;-55
2022/02/28 07:17:08;;;;;;;19.85;13.27;;;10.30;84.30;;;;;;5071345;28;20421;-55
2022/02/28 07:19:33;;;;;;;20.40;13.57;;;10.60;79.50;;;;;;5070553;28;20983;-55
2022/02/28 07:22:00;;;;;;;27.50;17.57;;;10.30;76.30;;;;;;5071196;28;20410;-55
2022/02/28 07:24:25;;;;;;;26.17;15.20;;;9.50;78.70;;;;;;5070852;28;20398;-55
2022/02/28 07:26:51;;;;;;;30.43;13.43;;;9.30;80.20;;;;;;5071657;28;20798;-55
2022/02/28 07:29:17;;;;;;;20.17;11.82;;;9.90;79.60;;;;;;5070752;28;20459;-55
2022/02/28 07:31:43;;;;;;;17.77;11.13;;;9.90;78.80;;;;;;5071719;28;20481;-57
2022/02/28 07:34:09;;;;;;;39.35;18.65;;;9.40;79.60;;;;;;5053710;28;20372;-55
2022/02/28 07:36:36;;;;;;;31.05;24.23;;;10.10;79.70;;;;;;5070169;28;20468;-55
2022/02/28 07:39:05;;;;;;;28.40;22.63;;;11.90;74.20;;;;;;5071039;28;20391;-55
2022/02/28 07:41:31;;;;;;;28.45;24.42;;;12.60;69.10;;;;;;5070440;28;20459;-55
2022/02/28 07:43:56;;;;;;;21.10;18.60;;;13.60;66.70;;;;;;5071095;28;20848;-55
2022/02/28 07:46:22;;;;;;;17.33;11.93;;;14.90;58.30;;;;;;5070214;28;20395;-56
2022/02/28 07:48:48;;;;;;;18.58;11.77;;;15.80;55.20;;;;;;5071306;28;20399;-55
2022/02/28 07:51:14;;;;;;;19.42;13.10;;;17.20;51.40;;;;;;5070799;28;20470;-57
2022/02/28 07:53:40;;;;;;;18.80;11.90;;;17.70;47.30;;;;;;5070558;28;20397;-55
2022/02/28 07:56:07;;;;;;;17.92;12.57;;;17.60;47.60;;;;;;5071110;28;20407;-55
2022/02/28 07:58:35;;;;;;;17.05;10.98;;;18.00;45.70;;;;;;5070159;28;20463;-55
2022/02/28 08:01:01;;;;;;;17.83;15.20;;;17.90;44.90;;;;;;5071020;28;20470;-56
2022/02/28 08:03:27;;;;;;;15.20;10.23;;;17.30;45.80;;;;;;5070075;28;20451;-56
2022/02/28 08:05:52;;;;;;;18.83;10.80;;;17.80;45.00;;;;;;5070245;28;20849;-56
2022/02/28 08:08:18;;;;;;;16.88;12.48;;;18.00;43.30;;;;;;5069893;28;20383;-56
2022/02/28 08:10:44;;;;;;;16.42;11.65;;;17.40;42.60;;;;;;5052956;28;20396;-56
2022/02/28 08:13:11;;;;;;;19.43;11.27;;;17.30;43.70;;;;;;5070092;28;20392;-56
2022/02/28 08:15:39;;;;;;;19.05;13.10;;;17.80;43.00;;;;;;5069670;28;20852;-56
2022/02/28 08:18:05;;;;;;;16.50;11.52;;;17.00;43.50;;;;;;5070547;28;20399;-56
2022/02/28 08:20:30;;;;;;;20.52;12.52;;;16.80;45.00;;;;;;5069477;28;20403;-56
2022/02/28 08:22:56;;;;;;;18.58;10.90;;;16.80;44.40;;;;;;5070076;28;20408;-56
2022/02/28 08:25:22;;;;;;;18.20;13.07;;;17.50;43.70;;;;;;5051665;28;20392;-56
2022/02/28 08:27:47;;;;;;;19.83;11.35;;;16.90;43.20;;;;;;5070238;28;20394;-56
2022/02/28 08:30:13;;;;;;;17.05;11.77;;;17.00;43.10;;;;;;5069432;28;20384;-57
2022/02/28 08:32:39;;;;;;;16.65;12.23;;;17.10;42.90;;;;;;5051850;28;20438;-56
2022/02/28 08:35:05;;;;;;;20.70;18.70;;;17.20;42.20;;;;;;5051862;28;20400;-56
2022/02/28 08:37:30;;;;;;;25.00;22.60;;;17.10;42.30;;;;;;5069129;28;20411;-56
2022/02/28 08:39:57;;;;;;;21.80;19.60;;;17.30;41.90;;;;;;5070352;28;20380;-56
2022/02/28 08:42:23;;;;;;;23.88;21.67;;;16.90;42.70;;;;;;5069373;28;20411;-56
2022/02/28 08:44:49;;;;;;;21.87;19.77;;;17.10;41.80;;;;;;5070014;28;20426;-56
2022/02/28 08:47:14;;;;;;;21.20;19.13;;;16.90;41.30;;;;;;5069248;28;20938;-58
2022/02/28 08:49:40;;;;;;;20.80;18.70;;;16.70;42.00;;;;;;5069826;28;20845;-56
2022/02/28 08:52:07;;;;;;;21.27;18.05;;;16.50;41.70;;;;;;5069578;28;20387;-57
2022/02/28 08:54:34;;;;;;;18.58;16.58;;;16.10;41.90;;;;;;5069058;28;20613;-56
2022/02/28 08:57:03;;;;;;;22.25;17.65;;;15.60;42.30;;;;;;5069120;28;20414;-57
2022/02/28 08:59:30;;;;;;;20.10;17.35;;;16.20;42.80;;;;;;5068577;28;20492;-57
2022/02/28 09:01:56;;;;;;;19.85;17.38;;;16.50;41.70;;;;;;5069808;28;20860;-57
2022/02/28 09:04:21;;;;;;;20.30;17.38;;;16.00;41.10;;;;;;5050414;28;20392;-57
2022/02/28 09:06:48;;;;;;;20.27;18.07;;;16.00;42.20;;;;;;5051061;28;20410;-57
2022/02/28 09:09:14;;;;;;;20.30;18.10;;;16.30;42.10;;;;;;5072208;28;20859;-58
2022/02/28 09:11:40;;;;;;;18.97;16.93;;;16.40;43.20;;;;;;5085450;28;20382;-57
2022/02/28 09:14:06;;;;;;;20.70;18.42;;;16.30;42.10;;;;;;5075939;28;20394;-57
2022/02/28 09:16:32;;;;;;;20.93;18.60;;;16.50;41.80;;;;;;5075329;28;20949;-57
2022/02/28 09:18:59;;;;;;;21.27;18.98;;;16.60;40.90;;;;;;5079258;28;20402;-56
2022/02/28 09:21:26;;;;;;;19.67;17.58;;;16.30;40.80;;;;;;5082784;28;20441;-57
2022/02/28 09:23:53;;;;;;;19.38;17.35;;;16.50;41.60;;;;;;5072222;28;20387;-56
2022/02/28 09:26:18;;;;;;;20.88;18.48;;;17.00;40.70;;;;;;5088577;28;20410;-58
2022/02/28 09:28:44;;;;;;;20.35;17.33;;;16.50;41.20;;;;;;5077046;28;20432;-57
2022/02/28 09:31:10;;;;;;;21.33;17.83;;;16.40;41.00;;;;;;5066854;28;20395;-57
2022/02/28 09:33:35;;;;;;;23.67;18.60;;;17.00;41.30;;;;;;5037694;28;20512;-57
2022/02/28 09:36:01;;;;;;;20.13;17.45;;;17.90;40.60;;;;;;5068217;28;20443;-58
2022/02/28 09:38:27;;;;;;;21.20;18.65;;;17.90;40.00;;;;;;5067187;28;20853;-55
2022/02/28 09:40:53;;;;;;;23.07;20.23;;;18.50;39.40;;;;;;5067885;28;20384;-55
2022/02/28 09:43:19;;;;;;;25.48;22.88;;;19.30;38.30;;;;;;5056083;28;20381;-59
2022/02/28 09:45:46;;;;;;;25.33;19.60;;;19.70;38.50;;;;;;5049160;28;20384;-56
2022/02/28 09:48:12;;;;;;;20.35;18.25;;;19.20;36.30;;;;;;5049294;28;20392;-57
2022/02/28 09:50:38;;;;;;;21.50;19.20;;;18.60;36.90;;;;;;5060227;28;20385;-56
2022/02/28 09:53:06;;;;;;;20.95;18.80;;;18.40;37.90;;;;;;5046102;28;20496;-57
2022/02/28 09:55:32;;;;;;;21.90;19.38;;;18.40;37.30;;;;;;5061364;28;20381;-57
2022/02/28 09:57:59;;;;;;;22.10;18.67;;;18.50;37.20;;;;;;5064996;28;20405;-58
2022/02/28 10:00:26;;;;;;;21.77;17.88;;;18.40;38.00;;;;;;5060234;28;20480;-57
2022/02/28 10:02:56;;;;;;;19.50;17.40;;;18.50;37.70;;;;;;5063138;28;20381;-57
2022/02/28 10:05:26;;;;;;;21.02;18.08;;;18.80;37.60;;;;;;5062137;28;20391;-56
2022/02/28 10:07:56;;;;;;;21.00;18.50;;;18.70;37.50;;;;;;5050831;28;20438;-57
2022/02/28 10:10:23;;;;;;;19.90;17.80;;;18.90;37.30;;;;;;5055508;28;20401;-57
2022/02/28 10:12:50;;;;;;;21.02;18.30;;;19.50;36.70;;;;;;5050754;28;20377;-56
2022/02/28 10:15:19;;;;;;;22.25;19.70;;;19.60;36.30;;;;;;5052078;28;20901;-57
2022/02/28 10:17:56;;;;;;;21.60;18.35;;;18.90;37.10;;;;;;5048706;28;20525;-55
2022/02/28 10:20:28;;;;;;;22.53;20.13;;;19.00;37.70;;;;;;5048111;28;20831;-58
2022/02/28 10:23:05;;;;;;;21.27;17.67;;;19.40;37.00;;;;;;5061229;28;20481;-56
2022/02/28 10:25:35;;;;;;;20.35;17.08;;;19.30;36.50;;;;;;5066431;28;20854;-57
2022/02/28 10:28:07;;;;;;;20.15;16.50;;;18.40;37.10;;;;;;5031019;28;20899;-57
2022/02/28 10:30:33;;;;;;;20.30;17.00;;;16.40;37.90;;;;;;5062713;28;20388;-58
2022/02/28 10:33:10;;;;;;;19.00;16.87;;;16.90;37.60;;;;;;5057981;28;20374;-57
2022/02/28 10:36:01;;;;;;;18.20;15.90;;;16.80;36.60;;;;;;5048054;28;20415;-58
2022/02/28 10:38:32;;;;;;;21.20;16.60;;;17.20;37.50;;;;;;5063301;28;20449;-57
2022/02/28 10:41:00;;;;;;;19.25;15.90;;;16.70;36.60;;;;;;5047538;28;20457;-56
2022/02/28 10:43:33;;;;;;;19.92;16.17;;;15.20;37.90;;;;;;5067546;28;20467;-56
2022/02/28 10:46:17;;;;;;;17.70;15.70;;;15.50;38.30;;;;;;5051230;28;20379;-56
2022/02/28 10:48:54;;;;;;;19.17;15.10;;;14.90;37.50;;;;;;5061457;28;20411;-57
2022/02/28 10:51:19;;;;;;;19.27;14.90;;;14.80;38.50;;;;;;5053343;28;20413;-58
2022/02/28 10:53:45;;;;;;;19.47;15.80;;;14.00;38.90;;;;;;5051448;28;20417;-56
2022/02/28 10:56:11;;;;;;;20.47;15.97;;;14.30;39.60;;;;;;5051252;28;20413;-56
2022/02/28 10:58:36;;;;;;;20.85;15.45;;;14.60;38.60;;;;;;5033162;28;20397;-56
2022/02/28 11:01:05;;;;;;;20.63;16.03;;;14.70;38.60;;;;;;5052089;28;20886;-56
2022/02/28 11:04:04;;;;;;;19.27;15.68;;;14.50;39.10;;;;;;5051103;28;20389;-56
2022/02/28 11:06:30;;;;;;;19.02;15.27;;;14.70;38.70;;;;;;5018104;28;20419;-56
2022/02/28 11:08:55;;;;;;;19.50;15.47;;;14.90;38.90;;;;;;5051810;28;20388;-56
2022/02/28 11:11:21;;;;;;;21.10;15.70;;;14.90;38.80;;;;;;5051523;28;20389;-58
2022/02/28 11:13:47;;;;;;;19.80;14.43;;;15.00;38.80;;;;;;5059561;28;20753;-56
2022/02/28 11:16:13;;;;;;;20.40;15.80;;;14.20;38.90;;;;;;5071258;28;20434;-56
2022/02/28 11:18:41;;;;;;;19.33;15.73;;;14.20;40.00;;;;;;5070832;28;20850;-58
2022/02/28 11:21:07;;;;;;;20.48;16.02;;;14.50;39.40;;;;;;5071500;28;20491;-56
2022/02/28 11:23:41;;;;;;;19.23;15.80;;;14.60;39.40;;;;;;5071008;28;20842;-57
2022/02/28 11:26:07;;;;;;;20.00;15.18;;;14.80;39.30;;;;;;5071282;28;20399;-56
2022/02/28 11:28:33;;;;;;;19.83;15.33;;;14.80;38.80;;;;;;5070717;28;20380;-56
2022/02/28 11:31:22;;;;;;;20.80;15.32;;;14.30;39.40;;;;;;5053706;28;20848;-56
2022/02/28 11:34:06;;;;;;;19.70;15.13;;;14.90;39.30;;;;;;5081276;28;20413;-56
2022/02/28 11:37:05;;;;;;;18.80;15.00;;;14.70;38.40;;;;;;5090901;28;20412;-55
2022/02/28 11:39:34;;;;;;;17.00;14.43;;;14.20;38.20;;;;;;5090787;28;20382;-55
2022/02/28 11:42:02;;;;;;;20.23;14.98;;;12.90;39.30;;;;;;5091615;28;20382;-55
2022/02/28 11:44:28;;;;;;;18.58;15.07;;;12.30;40.40;;;;;;5090830;28;20375;-55
2022/02/28 11:47:06;;;;;;;18.87;14.80;;;12.30;41.90;;;;;;5086888;28;20387;-55
2022/02/28 11:49:43;;;;;;;20.48;15.82;;;12.00;41.20;;;;;;5069872;28;20399;-55
2022/02/28 11:52:32;;;;;;;17.80;14.80;;;12.30;42.00;;;;;;5071502;28;20470;-55
2022/02/28 11:55:10;;;;;;;16.42;9.30;;;12.40;41.30;;;;;;5071168;28;20383;-55
2022/02/28 11:57:51;;;;;;;17.40;9.23;;;11.50;41.40;;;;;;5068966;28;20411;-55
2022/02/28 12:00:45;;;;;;;16.75;9.02;;;11.30;42.40;;;;;;5070292;28;20797;-55
2022/02/28 12:03:24;;;;;;;18.30;9.30;;;11.60;41.70;;;;;;5070439;28;20389;-55
2022/02/28 12:05:49;;;;;;;17.58;9.40;;;11.50;41.70;;;;;;5068225;28;20945;-56
2022/02/28 12:08:37;;;;;;;15.60;9.35;;;11.10;41.40;;;;;;5070107;28;20388;-55
2022/02/28 12:11:20;;;;;;;19.27;9.45;;;11.20;41.70;;;;;;5070340;28;20376;-56
2022/02/28 12:14:02;;;;;;;15.32;9.07;;;10.70;41.10;;;;;;5069660;28;20436;-55
2022/02/28 12:19:31;;;;;;;14.52;8.38;;;10.80;41.40;;;;;;5067482;28;20729;-57
2022/02/28 12:22:02;;;;;;;16.85;9.60;;;10.70;41.00;;;;;;5070164;28;20404;-55
2022/02/28 12:25:06;;;;;;;17.40;9.32;;;10.90;42.30;;;;;;5069698;28;20386;-55
2022/02/28 12:27:37;;;;;;;15.85;9.40;;;11.20;42.30;;;;;;4940370;29;20405;-56
2022/02/28 12:30:35;;;;;;;16.42;10.02;;;11.50;42.20;;;;;;4941703;29;20948;-56
2022/02/28 12:33:01;;;;;;;15.85;8.80;;;11.80;42.10;;;;;;5028385;28;20384;-56
2022/02/28 12:35:51;;;;;;;14.77;8.48;;;11.70;40.30;;;;;;5051062;28;20384;-57
2022/02/28 12:38:17;;;;;;;16.85;9.30;;;11.70;41.50;;;;;;5070211;28;20391;-56